Belfair, Washington
Current Conditions -  °F | °C
As of 8:55 AM on Tuesday 27 Jan 2015 (Local Time) from KPWT Reporting Station
Overcast Overcast  
Wind Chill: 48°   Ceiling: 1500
Heat Index: 48°   Visibility: 10mi
Dew Point: 48°   Wind: 3mph
Humidity: 100%   Direction: 170°S
Pressure: 30.06"   Gusts: NA
Location:  47.45°N, 122.83°W
Report Text: KPWT 271655Z AUTO 17003KT 10SM SCT004 BKN015 OVC050 09/09 A3006 RMK AO1
Loading
Personal Weather Stations






























Interactive Weather Map New forecast layout! Learn more

10-Day Weather Forecast

Advertisements
Track Severe Weather on mobile